Time;durP1;ratioP1;P1;durP2;ratioP2;P2;SDS_P1;SDS_P2;PMS_P1;PMS_P2;Temp;Humidity;BMP_temperature;BMP_pressure;BME280_temperature;BME280_humidity;BME280_pressure;Samples;Min_cycle;Max_cycle;Signal;HPM_P1;HPM_P2
2023/04/15 00:00:37;;;;;;;9.40;4.90;;;5.90;99.90;;;;;;5011219;28;20124;-72
2023/04/15 00:03:04;;;;;;;15.20;5.33;;;6.00;99.90;;;;;;5020476;28;20124;-72
2023/04/15 00:05:30;;;;;;;11.70;5.05;;;5.90;99.90;;;;;;5027394;28;20045;-71
2023/04/15 00:07:57;;;;;;;14.90;5.20;;;5.90;99.90;;;;;;5019448;28;20057;-71
2023/04/15 00:10:24;;;;;;;10.48;5.03;;;5.90;99.90;;;;;;5012010;28;20509;-71
2023/04/15 00:12:51;;;;;;;8.57;4.80;;;5.90;99.90;;;;;;5005344;28;20064;-71
2023/04/15 00:15:17;;;;;;;10.07;4.80;;;5.90;99.90;;;;;;4991085;28;20101;-71
2023/04/15 00:17:42;;;;;;;11.97;4.70;;;5.90;99.90;;;;;;4994537;28;20042;-71
2023/04/15 00:20:09;;;;;;;10.30;5.27;;;5.80;99.90;;;;;;5026169;28;20045;-71
2023/04/15 00:22:35;;;;;;;10.50;4.65;;;5.70;99.90;;;;;;5013904;28;20132;-71
2023/04/15 00:25:01;;;;;;;9.73;5.13;;;5.70;99.90;;;;;;5018530;28;20049;-71
2023/04/15 00:27:27;;;;;;;11.37;5.47;;;5.70;99.90;;;;;;5023788;28;20038;-71
2023/04/15 00:29:53;;;;;;;11.23;5.25;;;5.60;99.90;;;;;;5026937;28;20056;-71
2023/04/15 00:32:19;;;;;;;13.80;5.40;;;5.70;99.90;;;;;;5027928;28;20041;-71
2023/04/15 00:34:45;;;;;;;13.45;5.47;;;5.70;99.90;;;;;;5024793;28;20120;-71
2023/04/15 00:37:11;;;;;;;11.95;5.95;;;5.60;99.90;;;;;;5029549;28;20056;-71
2023/04/15 00:39:37;;;;;;;11.48;5.57;;;5.60;99.90;;;;;;5027217;28;20485;-71
2023/04/15 00:42:06;;;;;;;9.80;5.47;;;5.60;99.90;;;;;;5023711;28;20049;-71
2023/04/15 00:44:32;;;;;;;11.20;5.50;;;5.60;99.90;;;;;;5026903;28;20662;-71
2023/04/15 00:47:01;;;;;;;9.13;5.13;;;5.50;99.90;;;;;;5026821;28;20621;-71
2023/04/15 00:49:28;;;;;;;13.32;5.95;;;5.50;99.90;;;;;;5019121;28;20046;-71
2023/04/15 00:51:54;;;;;;;9.40;5.30;;;5.50;99.90;;;;;;5013405;28;20050;-71
2023/04/15 00:54:20;;;;;;;11.97;5.70;;;5.50;99.90;;;;;;5029916;28;20045;-71
2023/04/15 00:56:46;;;;;;;14.13;5.50;;;5.40;99.90;;;;;;5006992;28;20409;-71
2023/04/15 00:59:13;;;;;;;11.77;5.90;;;5.30;99.90;;;;;;5025414;28;20033;-71
2023/04/15 01:01:39;;;;;;;13.50;5.90;;;5.30;99.90;;;;;;5020530;28;20611;-71
2023/04/15 01:04:05;;;;;;;13.50;5.95;;;5.30;99.90;;;;;;5009722;28;20405;-71
2023/04/15 01:06:31;;;;;;;11.10;5.93;;;5.30;99.90;;;;;;5022540;28;20079;-71
2023/04/15 01:08:57;;;;;;;12.70;5.90;;;5.20;99.90;;;;;;5007006;28;20038;-71
2023/04/15 01:11:24;;;;;;;16.25;5.85;;;5.20;99.90;;;;;;5027026;28;20042;-71
2023/04/15 01:13:51;;;;;;;13.18;6.10;;;5.20;99.90;;;;;;5023657;28;20553;-71
2023/04/15 01:16:18;;;;;;;15.98;6.60;;;5.20;99.90;;;;;;5022668;28;20512;-71
2023/04/15 01:18:44;;;;;;;16.10;6.50;;;5.20;99.90;;;;;;5011326;28;20038;-71
2023/04/15 01:21:11;;;;;;;16.33;6.40;;;5.10;99.90;;;;;;5021262;28;20552;-71
2023/04/15 01:23:38;;;;;;;16.05;7.30;;;5.10;99.90;;;;;;5027555;28;20041;-71
2023/04/15 01:26:04;;;;;;;12.25;6.50;;;5.10;99.90;;;;;;5011622;28;20041;-71
2023/04/15 01:28:31;;;;;;;14.15;6.90;;;5.10;99.90;;;;;;5026086;28;20103;-71
2023/04/15 01:31:12;;;;;;;12.65;6.57;;;5.10;99.90;;;;;;5017521;28;20666;-71
2023/04/15 01:33:39;;;;;;;12.70;6.72;;;5.00;99.90;;;;;;5020899;28;20052;-71
2023/04/15 01:36:07;;;;;;;13.13;6.65;;;5.00;99.90;;;;;;5025280;28;20041;-71
2023/04/15 01:38:33;;;;;;;15.32;6.90;;;5.00;99.90;;;;;;5023647;28;20127;-71
2023/04/15 01:40:59;;;;;;;13.57;6.72;;;5.00;99.90;;;;;;5011793;28;20052;-71
2023/04/15 01:43:25;;;;;;;16.27;7.30;;;4.90;99.90;;;;;;5025568;28;20037;-71
2023/04/15 01:45:51;;;;;;;14.25;7.35;;;4.90;99.90;;;;;;5027957;28;20045;-71
2023/04/15 01:48:17;;;;;;;13.10;7.57;;;4.90;99.90;;;;;;5024916;28;20115;-71
2023/04/15 01:50:44;;;;;;;11.25;7.10;;;4.90;99.90;;;;;;5028666;28;20048;-71
2023/04/15 01:53:10;;;;;;;17.30;7.43;;;4.80;99.90;;;;;;5025938;28;20799;-71
2023/04/15 01:55:36;;;;;;;15.80;7.70;;;4.80;99.90;;;;;;5015745;28;20053;-71
2023/04/15 01:58:02;;;;;;;11.77;8.30;;;4.80;99.90;;;;;;5003452;28;20079;-72
2023/04/15 02:00:28;;;;;;;17.20;8.60;;;4.80;99.90;;;;;;5005428;28;20069;-72
2023/04/15 02:02:54;;;;;;;19.58;8.57;;;4.80;99.90;;;;;;5021198;28;20577;-71
2023/04/15 02:05:20;;;;;;;16.00;8.73;;;4.80;99.90;;;;;;5011952;28;20136;-71
2023/04/15 02:07:46;;;;;;;14.57;7.83;;;4.80;99.90;;;;;;5018031;28;20586;-71
2023/04/15 02:10:15;;;;;;;14.10;8.10;;;4.80;99.90;;;;;;5027595;28;20560;-71
2023/04/15 02:12:41;;;;;;;16.60;8.77;;;4.80;99.90;;;;;;5017689;28;20045;-71
2023/04/15 02:15:08;;;;;;;17.25;8.70;;;4.80;99.90;;;;;;4991108;28;20083;-71
2023/04/15 02:17:35;;;;;;;19.65;9.20;;;4.70;99.90;;;;;;5007703;28;20476;-71
2023/04/15 02:20:01;;;;;;;17.92;9.05;;;4.70;99.90;;;;;;5024441;28;20390;-71
2023/04/15 02:22:28;;;;;;;15.77;8.73;;;4.70;99.90;;;;;;5008390;28;20037;-71
2023/04/15 02:24:53;;;;;;;16.45;9.18;;;4.70;99.90;;;;;;5023980;28;20121;-71
2023/04/15 02:27:19;;;;;;;15.97;8.70;;;4.70;99.90;;;;;;5022647;28;20127;-71
2023/04/15 02:29:45;;;;;;;18.43;9.07;;;4.70;99.90;;;;;;5021218;28;20050;-71
2023/04/15 02:32:11;;;;;;;19.53;9.37;;;4.70;99.90;;;;;;5027290;28;20041;-71
2023/04/15 02:34:41;;;;;;;17.80;8.90;;;4.70;99.90;;;;;;5027464;28;20129;-71
2023/04/15 02:37:12;;;;;;;15.50;9.45;;;4.70;99.90;;;;;;5024388;28;20057;-71
2023/04/15 02:39:38;;;;;;;18.63;9.75;;;4.70;99.90;;;;;;5024492;28;20041;-71
2023/04/15 02:42:04;;;;;;;18.57;9.83;;;4.70;99.90;;;;;;5016871;28;20049;-71
2023/04/15 02:44:31;;;;;;;18.33;10.20;;;4.70;99.90;;;;;;5025889;28;20501;-71
2023/04/15 02:46:57;;;;;;;16.42;9.85;;;4.60;99.90;;;;;;5026485;28;20139;-71
2023/04/15 02:49:24;;;;;;;17.70;9.82;;;4.60;99.90;;;;;;5027437;28;20116;-71
2023/04/15 02:51:50;;;;;;;18.95;10.35;;;4.50;99.90;;;;;;5023376;28;20037;-71
2023/04/15 02:54:21;;;;;;;16.92;9.45;;;4.60;99.90;;;;;;5026057;28;20756;-71
2023/04/15 02:56:47;;;;;;;18.55;10.63;;;4.50;99.90;;;;;;5008449;28;20416;-71
2023/04/15 02:59:13;;;;;;;18.15;9.70;;;4.50;99.90;;;;;;5023713;28;20049;-71
2023/04/15 03:01:39;;;;;;;17.47;9.70;;;4.50;99.90;;;;;;5011154;28;20047;-71
2023/04/15 03:04:06;;;;;;;16.40;10.67;;;4.40;99.90;;;;;;4997007;28;20555;-71
2023/04/15 03:06:32;;;;;;;18.08;10.38;;;4.40;99.90;;;;;;5017149;28;20051;-71
2023/04/15 03:08:59;;;;;;;19.67;10.93;;;4.40;99.90;;;;;;5010252;28;20045;-71
2023/04/15 03:11:26;;;;;;;18.20;10.70;;;4.30;99.90;;;;;;5027155;28;20041;-71
2023/04/15 03:13:51;;;;;;;15.95;9.90;;;4.40;99.90;;;;;;5027515;28;20144;-71
2023/04/15 03:16:17;;;;;;;17.70;11.20;;;4.40;99.90;;;;;;5027515;28;20584;-71
2023/04/15 03:18:43;;;;;;;17.60;10.03;;;4.40;99.90;;;;;;5028105;28;20045;-71
2023/04/15 03:21:08;;;;;;;18.53;10.43;;;4.30;99.90;;;;;;5025930;28;20037;-71
2023/04/15 03:23:34;;;;;;;17.83;10.80;;;4.30;99.90;;;;;;5027681;28;20041;-71
2023/04/15 03:26:04;;;;;;;17.63;11.10;;;4.20;99.90;;;;;;5025071;28;20049;-71
2023/04/15 03:28:30;;;;;;;16.73;10.77;;;4.20;99.90;;;;;;5027691;28;20783;-71
2023/04/15 03:30:56;;;;;;;19.15;10.27;;;4.20;99.90;;;;;;5027612;28;20429;-71
2023/04/15 03:33:21;;;;;;;20.10;11.77;;;4.30;99.90;;;;;;5010794;28;20037;-71
2023/04/15 03:35:47;;;;;;;15.03;10.03;;;4.30;99.90;;;;;;5026888;28;20734;-71
2023/04/15 03:38:13;;;;;;;18.23;10.70;;;4.30;99.90;;;;;;5011004;28;20171;-71
2023/04/15 03:40:42;;;;;;;15.17;10.53;;;4.30;99.90;;;;;;5009515;28;20052;-71
2023/04/15 03:43:07;;;;;;;16.42;10.60;;;4.20;99.90;;;;;;5027532;28;20113;-71
2023/04/15 03:45:33;;;;;;;18.50;10.50;;;4.20;99.90;;;;;;5010556;28;20171;-71
2023/04/15 03:47:59;;;;;;;19.37;10.33;;;4.20;99.90;;;;;;5026965;28;20228;-71
2023/04/15 03:50:25;;;;;;;17.57;11.07;;;4.20;99.90;;;;;;5013759;28;20132;-71
2023/04/15 03:52:51;;;;;;;19.48;10.38;;;4.20;99.90;;;;;;5031117;28;20045;-71
2023/04/15 03:55:16;;;;;;;16.43;10.73;;;4.20;99.90;;;;;;5031237;28;20048;-72
2023/04/15 03:57:42;;;;;;;20.63;10.80;;;4.30;99.90;;;;;;5030367;28;20109;-71
2023/04/15 04:00:11;;;;;;;23.97;11.53;;;4.20;99.90;;;;;;5029166;28;20110;-71
2023/04/15 04:02:37;;;;;;;20.05;11.55;;;4.20;99.90;;;;;;5030610;28;20041;-71
2023/04/15 04:05:03;;;;;;;17.00;10.60;;;4.30;99.90;;;;;;5030667;28;20048;-71
2023/04/15 04:07:29;;;;;;;20.83;11.80;;;4.30;99.90;;;;;;5031023;28;20033;-71
2023/04/15 04:09:56;;;;;;;20.93;11.83;;;4.30;99.90;;;;;;5029532;28;20057;-71
2023/04/15 04:12:22;;;;;;;17.40;11.23;;;4.30;99.90;;;;;;5017392;28;20048;-71
2023/04/15 04:14:48;;;;;;;21.13;12.27;;;4.30;99.90;;;;;;5030789;28;20041;-71
2023/04/15 04:17:13;;;;;;;21.97;12.37;;;4.20;99.90;;;;;;5030625;28;20437;-71
2023/04/15 04:19:39;;;;;;;20.10;12.93;;;4.20;99.90;;;;;;5030709;28;20042;-71
2023/04/15 04:22:05;;;;;;;20.88;12.30;;;4.20;99.90;;;;;;5012452;28;20046;-71
2023/04/15 04:24:31;;;;;;;21.57;12.57;;;4.20;99.90;;;;;;5018884;28;20034;-71
2023/04/15 04:26:57;;;;;;;21.57;12.77;;;4.20;99.90;;;;;;4997814;28;20052;-71
2023/04/15 04:29:23;;;;;;;19.00;12.23;;;4.20;99.90;;;;;;5028793;28;20291;-71
2023/04/15 04:31:49;;;;;;;21.63;13.20;;;4.20;99.90;;;;;;5030379;28;20331;-71
2023/04/15 04:34:15;;;;;;;24.63;13.50;;;4.20;99.90;;;;;;5030262;28;20088;-71
2023/04/15 04:36:41;;;;;;;26.92;14.43;;;4.20;99.90;;;;;;5028689;28;20033;-71
2023/04/15 04:39:07;;;;;;;24.02;13.20;;;4.10;99.90;;;;;;5028286;28;20103;-71
2023/04/15 04:41:32;;;;;;;22.93;13.50;;;4.10;99.90;;;;;;5029484;28;20417;-71
2023/04/15 04:43:58;;;;;;;20.30;12.40;;;4.10;99.90;;;;;;5005028;28;20089;-71
2023/04/15 04:46:24;;;;;;;21.42;14.23;;;4.10;99.90;;;;;;5006274;28;20557;-71
2023/04/15 04:48:50;;;;;;;20.73;13.67;;;4.10;99.90;;;;;;5026136;28;20140;-71
2023/04/15 04:51:16;;;;;;;25.57;14.73;;;4.10;99.90;;;;;;5028207;28;20292;-71
2023/04/15 04:53:42;;;;;;;24.80;14.52;;;4.10;99.90;;;;;;5026142;28;20044;-71
2023/04/15 04:56:08;;;;;;;21.73;13.70;;;4.00;99.90;;;;;;5028111;28;20492;-71
2023/04/15 04:58:33;;;;;;;26.77;14.63;;;4.00;99.90;;;;;;5027225;28;20049;-71
2023/04/15 05:00:59;;;;;;;20.53;13.13;;;4.00;99.90;;;;;;5020287;28;20131;-71
2023/04/15 05:03:26;;;;;;;22.90;13.67;;;4.00;99.90;;;;;;5030057;28;20048;-71
2023/04/15 05:05:52;;;;;;;20.70;13.35;;;4.00;99.90;;;;;;5013161;28;20041;-71
2023/04/15 05:08:17;;;;;;;21.23;13.60;;;4.00;99.90;;;;;;5011243;28;20041;-72
2023/04/15 05:10:43;;;;;;;23.13;13.50;;;4.00;99.90;;;;;;5020469;28;20041;-71
2023/04/15 05:13:09;;;;;;;20.80;12.07;;;4.00;99.90;;;;;;5021643;28;20041;-71
2023/04/15 05:15:36;;;;;;;21.43;14.23;;;4.00;99.90;;;;;;5021081;28;20125;-71
2023/04/15 05:18:01;;;;;;;19.17;12.48;;;4.00;99.90;;;;;;5020100;28;20049;-71
2023/04/15 05:20:27;;;;;;;18.23;12.77;;;4.10;99.90;;;;;;5029438;28;20087;-71
2023/04/15 05:22:53;;;;;;;21.10;12.93;;;4.10;99.90;;;;;;5024204;28;20081;-71
2023/04/15 05:25:19;;;;;;;20.63;13.60;;;4.10;99.90;;;;;;5023202;28;20457;-71
2023/04/15 05:27:45;;;;;;;21.67;13.70;;;4.20;99.90;;;;;;5026434;28;20030;-71
2023/04/15 05:30:11;;;;;;;21.37;13.33;;;4.30;99.90;;;;;;5029061;28;20405;-71
2023/04/15 05:32:36;;;;;;;21.43;13.73;;;4.30;99.90;;;;;;5012327;28;20045;-71
2023/04/15 05:35:02;;;;;;;20.40;13.10;;;4.30;99.90;;;;;;5029512;28;20053;-71
2023/04/15 05:37:28;;;;;;;20.70;13.10;;;4.40;99.90;;;;;;5011928;28;20036;-71
2023/04/15 05:39:53;;;;;;;23.40;14.10;;;4.40;99.90;;;;;;5029235;28;20553;-71
2023/04/15 05:42:19;;;;;;;20.43;13.23;;;4.40;99.90;;;;;;5025538;28;20053;-71
2023/04/15 05:44:45;;;;;;;20.07;12.83;;;4.50;99.90;;;;;;5029244;28;20048;-71
2023/04/15 05:47:11;;;;;;;21.47;12.30;;;4.60;99.90;;;;;;5009904;28;20300;-71
2023/04/15 05:49:37;;;;;;;21.93;13.17;;;4.60;99.90;;;;;;5029529;28;20091;-71
2023/04/15 05:52:02;;;;;;;20.10;12.87;;;4.70;99.90;;;;;;5028545;28;20099;-71
2023/04/15 05:54:28;;;;;;;20.20;12.50;;;4.80;99.90;;;;;;5008795;28;20049;-72
2023/04/15 05:56:56;;;;;;;18.43;12.03;;;4.90;99.90;;;;;;5029374;28;20464;-71
2023/04/15 05:59:22;;;;;;;18.05;11.80;;;5.00;99.90;;;;;;5005660;28;20128;-71
2023/04/15 06:01:48;;;;;;;17.50;11.60;;;5.20;99.90;;;;;;5013686;28;20167;-71
2023/04/15 06:04:14;;;;;;;18.27;11.80;;;5.30;99.90;;;;;;5029441;28;20460;-71
2023/04/15 06:06:40;;;;;;;18.77;12.07;;;5.40;99.90;;;;;;5029919;28;20088;-71
2023/04/15 06:09:05;;;;;;;17.40;10.77;;;5.60;99.90;;;;;;5028751;28;20037;-72
2023/04/15 06:11:31;;;;;;;16.50;10.70;;;5.70;99.90;;;;;;5043123;28;20131;-72
2023/04/15 06:13:57;;;;;;;14.80;10.57;;;5.90;99.90;;;;;;5013815;28;20040;-72
2023/04/15 06:16:22;;;;;;;16.47;11.13;;;6.00;99.90;;;;;;5014183;28;20038;-71
2023/04/15 06:18:48;;;;;;;16.50;10.40;;;6.20;99.90;;;;;;5029949;28;20042;-72
2023/04/15 06:21:14;;;;;;;17.07;11.40;;;6.40;99.90;;;;;;5028598;28;20724;-72
2023/04/15 06:23:40;;;;;;;17.38;11.77;;;6.50;99.90;;;;;;5029400;28;20485;-72
2023/04/15 06:26:06;;;;;;;17.40;11.60;;;6.70;99.90;;;;;;5025281;28;20100;-72
2023/04/15 06:28:32;;;;;;;17.05;10.77;;;6.90;99.90;;;;;;5026751;28;20044;-72
2023/04/15 06:30:58;;;;;;;16.53;11.17;;;7.00;99.90;;;;;;5028497;28;20041;-72
2023/04/15 06:33:24;;;;;;;15.13;10.30;;;7.20;99.90;;;;;;5016916;28;20072;-72
2023/04/15 06:35:49;;;;;;;16.37;10.30;;;7.30;99.90;;;;;;5022116;28;20120;-72
2023/04/15 06:38:15;;;;;;;14.63;10.07;;;7.50;99.90;;;;;;5028293;28;20038;-72
2023/04/15 06:40:41;;;;;;;16.07;10.10;;;7.60;99.90;;;;;;5027636;28;20120;-72
2023/04/15 06:43:08;;;;;;;15.33;9.77;;;7.70;99.90;;;;;;5027200;28;20128;-72
2023/04/15 06:45:34;;;;;;;12.77;9.50;;;7.80;99.90;;;;;;5000776;28;20295;-72
2023/04/15 06:48:00;;;;;;;17.83;10.02;;;7.90;99.90;;;;;;5020802;28;20058;-72
2023/04/15 06:50:26;;;;;;;15.83;9.70;;;7.90;99.90;;;;;;5025742;28;20056;-72
2023/04/15 06:52:56;;;;;;;15.25;9.90;;;8.00;99.90;;;;;;5027628;28;20045;-72
2023/04/15 06:55:21;;;;;;;15.82;9.75;;;8.10;99.90;;;;;;5025120;28;20378;-72
2023/04/15 06:57:47;;;;;;;12.70;9.43;;;8.20;99.90;;;;;;5027705;28;20053;-72
2023/04/15 07:00:13;;;;;;;15.03;9.53;;;8.20;99.90;;;;;;5026766;28;20048;-72
2023/04/15 07:02:39;;;;;;;13.40;8.77;;;8.30;99.90;;;;;;5020137;28;20457;-72
2023/04/15 07:05:06;;;;;;;13.73;9.50;;;8.40;99.90;;;;;;5026238;28;20378;-72
2023/04/15 07:07:32;;;;;;;14.27;8.85;;;8.50;99.90;;;;;;5019018;28;20068;-72
2023/04/15 07:09:57;;;;;;;14.60;9.40;;;8.60;99.90;;;;;;5027685;28;20045;-72
2023/04/15 07:12:23;;;;;;;12.50;9.33;;;8.70;99.90;;;;;;5028188;28;20080;-72
2023/04/15 07:14:49;;;;;;;12.90;8.90;;;8.70;99.90;;;;;;5026877;28;20046;-72
2023/04/15 07:17:15;;;;;;;14.20;8.87;;;8.80;99.90;;;;;;5012518;28;20129;-72
2023/04/15 07:19:40;;;;;;;14.43;8.68;;;8.90;99.90;;;;;;5012132;28;20512;-72
2023/04/15 07:22:06;;;;;;;13.43;8.57;;;9.00;99.90;;;;;;5011786;28;20059;-72
2023/04/15 07:24:32;;;;;;;14.33;9.10;;;9.10;99.90;;;;;;5014380;28;20033;-72
2023/04/15 07:26:58;;;;;;;14.73;8.90;;;9.30;99.90;;;;;;5028448;28;20117;-72
2023/04/15 07:29:25;;;;;;;12.83;7.80;;;9.50;99.90;;;;;;5031940;28;20080;-72
2023/04/15 07:31:50;;;;;;;12.25;8.60;;;9.60;99.90;;;;;;5024317;28;20514;-72
2023/04/15 07:34:17;;;;;;;13.97;8.80;;;9.70;99.90;;;;;;5027816;28;20084;-72
2023/04/15 07:36:43;;;;;;;12.27;8.32;;;9.90;99.90;;;;;;5023945;28;20037;-72
2023/04/15 07:39:09;;;;;;;14.73;8.60;;;10.00;99.90;;;;;;5015307;28;20045;-72
2023/04/15 07:41:34;;;;;;;9.70;7.50;;;10.20;99.90;;;;;;5032170;28;20617;-72
2023/04/15 07:44:00;;;;;;;10.10;6.87;;;10.40;99.90;;;;;;5015188;28;20092;-72
2023/04/15 07:46:26;;;;;;;9.03;6.50;;;10.50;99.90;;;;;;5009720;28;20045;-72
2023/04/15 07:48:52;;;;;;;7.73;5.67;;;10.60;99.90;;;;;;5027657;28;20053;-72
2023/04/15 07:51:20;;;;;;;6.70;4.65;;;10.70;99.90;;;;;;5026352;28;20069;-72
2023/04/15 07:53:47;;;;;;;5.88;4.00;;;10.80;99.90;;;;;;5007747;28;20076;-72
2023/04/15 07:56:13;;;;;;;5.70;3.92;;;10.90;99.90;;;;;;5006639;28;20034;-72
2023/04/15 07:58:39;;;;;;;4.47;3.67;;;10.90;99.90;;;;;;5023601;28;20107;-71
2023/04/15 08:01:05;;;;;;;7.20;4.13;;;10.90;99.90;;;;;;5015032;28;20033;-71
2023/04/15 08:03:31;;;;;;;8.73;4.75;;;10.90;99.90;;;;;;5012463;28;20041;-72
2023/04/15 08:05:57;;;;;;;7.15;4.43;;;11.00;99.90;;;;;;5025675;28;20070;-72
2023/04/15 08:08:24;;;;;;;6.20;3.72;;;10.90;99.90;;;;;;5031244;28;20053;-72
2023/04/15 08:10:50;;;;;;;5.55;3.63;;;10.90;99.90;;;;;;5013462;28;20049;-72
2023/04/15 08:13:16;;;;;;;6.70;4.03;;;10.90;99.90;;;;;;5026919;28;20540;-72
2023/04/15 08:15:42;;;;;;;6.47;3.63;;;10.90;99.90;;;;;;5031592;28;20052;-72
2023/04/15 08:18:07;;;;;;;4.70;3.50;;;10.90;99.90;;;;;;4996148;28;20701;-72
2023/04/15 08:20:33;;;;;;;5.83;3.87;;;10.80;99.90;;;;;;5005667;28;20288;-72
2023/04/15 08:22:59;;;;;;;6.83;3.77;;;10.80;99.90;;;;;;5009987;28;20037;-72
2023/04/15 08:25:26;;;;;;;7.57;3.80;;;10.80;99.90;;;;;;5027925;28;20044;-72
2023/04/15 08:27:54;;;;;;;5.85;3.65;;;10.80;99.90;;;;;;5021414;28;20299;-72
2023/04/15 08:30:20;;;;;;;8.10;5.45;;;10.90;99.90;;;;;;5002061;28;20040;-72
2023/04/15 08:32:46;;;;;;;4.35;3.00;;;10.90;99.90;;;;;;5024652;28;20076;-72
2023/04/15 08:35:12;;;;;;;5.63;3.20;;;10.90;99.90;;;;;;5023599;28;20070;-72
2023/04/15 08:37:38;;;;;;;5.28;2.90;;;11.00;99.90;;;;;;5023091;28;20034;-72
2023/04/15 08:40:04;;;;;;;5.83;2.83;;;11.10;99.90;;;;;;5024056;28;20129;-71
2023/04/15 08:42:35;;;;;;;4.80;2.80;;;11.20;99.90;;;;;;5005970;28;20034;-72
2023/04/15 08:45:03;;;;;;;5.40;3.70;;;11.20;99.90;;;;;;5024175;28;20042;-72
2023/04/15 08:47:30;;;;;;;5.18;3.20;;;11.20;99.90;;;;;;5028340;28;20053;-72
2023/04/15 08:49:57;;;;;;;6.93;3.92;;;11.20;99.90;;;;;;5027679;28;20157;-72
2023/04/15 08:52:26;;;;;;;5.57;3.47;;;11.30;99.90;;;;;;5022309;28;20042;-72
2023/04/15 08:55:00;;;;;;;7.03;3.63;;;11.50;99.90;;;;;;5019072;28;20050;-72
2023/04/15 08:57:27;;;;;;;7.43;3.60;;;11.60;99.90;;;;;;5019028;28;20077;-72
2023/04/15 08:59:55;;;;;;;9.07;3.60;;;11.50;99.90;;;;;;5023899;28;20123;-72
2023/04/15 09:02:22;;;;;;;7.45;4.28;;;11.50;99.90;;;;;;5024640;28;20045;-72
2023/04/15 09:04:47;;;;;;;9.15;4.03;;;11.40;99.90;;;;;;5018163;28;20096;-72
2023/04/15 09:07:14;;;;;;;9.23;4.33;;;11.40;99.90;;;;;;5015616;28;20045;-73
2023/04/15 09:09:41;;;;;;;7.85;4.45;;;11.30;99.90;;;;;;5021383;28;20444;-73
2023/04/15 09:12:07;;;;;;;6.32;4.20;;;11.30;99.90;;;;;;5025438;28;20167;-73
2023/04/15 09:14:33;;;;;;;6.75;3.50;;;11.30;99.90;;;;;;5027365;28;20128;-73
2023/04/15 09:17:03;;;;;;;6.85;3.13;;;11.40;99.90;;;;;;5011829;28;20902;-74
2023/04/15 09:19:30;;;;;;;6.32;3.83;;;11.60;99.90;;;;;;5023235;28;20493;-71
2023/04/15 09:21:58;;;;;;;5.57;3.15;;;11.60;99.90;;;;;;5013621;28;20693;-72
2023/04/15 09:24:25;;;;;;;6.53;2.40;;;11.60;99.90;;;;;;5028749;28;20037;-72
2023/04/15 09:26:55;;;;;;;5.17;2.63;;;11.60;99.90;;;;;;4999653;28;20149;-72
2023/04/15 09:29:25;;;;;;;5.70;2.90;;;11.50;99.90;;;;;;5029367;28;20296;-73
2023/04/15 09:31:51;;;;;;;6.47;2.50;;;11.40;99.90;;;;;;5009870;28;20641;-72
2023/04/15 09:34:17;;;;;;;4.97;2.60;;;11.30;99.90;;;;;;5012753;28;20453;-72
2023/04/15 09:36:46;;;;;;;5.77;3.07;;;11.30;99.90;;;;;;5030113;28;20311;-72
2023/04/15 09:39:12;;;;;;;5.05;3.17;;;11.20;99.90;;;;;;5029554;28;20338;-72
2023/04/15 09:41:39;;;;;;;5.03;3.05;;;11.10;99.90;;;;;;5028916;28;20064;-73
2023/04/15 09:44:04;;;;;;;4.90;3.00;;;11.10;99.90;;;;;;5019291;28;20393;-73
2023/04/15 09:46:42;;;;;;;4.73;2.67;;;11.10;99.90;;;;;;5027168;28;20065;-73
2023/04/15 09:49:11;;;;;;;7.00;2.92;;;11.00;99.90;;;;;;5006050;28;20128;-73
2023/04/15 09:51:37;;;;;;;5.35;3.53;;;11.10;99.90;;;;;;5026574;28;20033;-73
2023/04/15 09:54:04;;;;;;;5.20;2.33;;;11.20;99.90;;;;;;5026655;28;20133;-73
2023/04/15 09:56:37;;;;;;;6.90;2.33;;;11.20;99.90;;;;;;5021950;28;20472;-73
2023/04/15 09:59:04;;;;;;;7.88;2.35;;;11.30;99.90;;;;;;5009815;28;20497;-73
2023/04/15 10:01:30;;;;;;;5.47;2.53;;;11.30;99.90;;;;;;5019860;28;20041;-73
2023/04/15 10:03:57;;;;;;;2.57;1.53;;;11.50;99.90;;;;;;5013599;28;20607;-73
2023/04/15 10:06:25;;;;;;;5.20;1.80;;;11.60;99.90;;;;;;4997897;28;20068;-73
2023/04/15 10:08:51;;;;;;;3.55;1.27;;;11.80;99.90;;;;;;5000892;28;20449;-72
2023/04/15 10:11:18;;;;;;;7.20;1.57;;;11.80;99.90;;;;;;5005550;28;20038;-73
2023/04/15 10:13:47;;;;;;;5.07;1.40;;;11.70;99.90;;;;;;5032347;28;20037;-72
2023/04/15 10:16:15;;;;;;;3.40;1.13;;;11.60;99.90;;;;;;5033346;28;20822;-72
2023/04/15 10:18:47;;;;;;;4.35;1.33;;;11.70;99.90;;;;;;5028997;28;20145;-73
2023/04/15 10:21:17;;;;;;;4.20;1.50;;;11.90;99.90;;;;;;4999257;28;20960;-73
2023/04/15 10:23:46;;;;;;;3.40;1.30;;;12.20;99.90;;;;;;5014697;28;20288;-72
2023/04/15 10:26:13;;;;;;;3.07;1.13;;;12.40;99.90;;;;;;5003883;28;20443;-75
2023/04/15 10:28:40;;;;;;;5.20;1.30;;;12.30;99.90;;;;;;5024723;28;20379;-72
2023/04/15 10:31:06;;;;;;;2.00;0.83;;;12.40;99.90;;;;;;5014930;28;20281;-71
2023/04/15 10:33:33;;;;;;;3.23;1.20;;;12.40;99.90;;;;;;5034441;28;20331;-73
2023/04/15 10:36:00;;;;;;;7.27;1.20;;;12.30;99.90;;;;;;5032472;28;20792;-73
2023/04/15 10:38:42;;;;;;;3.63;0.80;;;12.10;99.90;;;;;;5033371;28;21006;-72
2023/04/15 10:41:14;;;;;;;4.70;0.80;;;11.90;99.90;;;;;;5034411;28;20307;-72
2023/04/15 10:43:47;;;;;;;1.33;0.50;;;11.90;99.90;;;;;;5026297;28;20303;-72
2023/04/15 10:46:15;;;;;;;1.90;0.70;;;11.90;99.90;;;;;;5032117;28;20311;-72
2023/04/15 10:48:48;;;;;;;2.10;1.00;;;12.10;99.90;;;;;;5012401;28;20644;-73
2023/04/15 10:51:13;;;;;;;3.00;0.87;;;12.30;99.90;;;;;;5013289;28;20643;-73
2023/04/15 10:53:41;;;;;;;2.73;0.93;;;12.40;99.90;;;;;;5013142;28;20367;-73
2023/04/15 10:56:09;;;;;;;1.90;0.87;;;12.40;99.90;;;;;;5028609;28;20069;-73
2023/04/15 10:58:44;;;;;;;3.20;1.20;;;12.30;99.90;;;;;;5044878;28;20315;-73
2023/04/15 11:01:10;;;;;;;2.47;1.10;;;12.20;99.90;;;;;;5025859;28;20280;-73
2023/04/15 11:03:38;;;;;;;3.27;1.40;;;12.00;99.90;;;;;;5011512;28;20272;-73
2023/04/15 11:06:05;;;;;;;3.13;1.10;;;11.90;99.90;;;;;;5024794;28;20089;-73
2023/04/15 11:08:55;;;;;;;4.83;1.70;;;11.80;99.90;;;;;;5024904;28;20276;-73
2023/04/15 11:11:21;;;;;;;4.03;1.13;;;11.60;99.90;;;;;;5024687;28;20280;-73
2023/04/15 11:13:49;;;;;;;4.50;0.63;;;11.60;99.90;;;;;;5025154;28;20762;-73
2023/04/15 11:16:15;;;;;;;4.27;1.10;;;11.60;99.90;;;;;;5027221;28;20048;-73
2023/04/15 11:18:41;;;;;;;4.47;1.00;;;11.60;99.90;;;;;;5015047;28;20296;-73
2023/04/15 11:21:08;;;;;;;3.53;1.47;;;11.50;99.90;;;;;;5013890;28;20053;-73
2023/04/15 11:23:35;;;;;;;2.40;1.10;;;11.50;99.90;;;;;;5010337;28;20048;-73
2023/04/15 11:26:05;;;;;;;2.80;1.07;;;11.40;99.90;;;;;;4989113;28;20380;-73
2023/04/15 11:28:32;;;;;;;3.87;1.07;;;11.30;99.90;;;;;;5015575;28;20288;-73
2023/04/15 11:31:04;;;;;;;3.13;1.20;;;11.30;99.90;;;;;;5008528;28;20281;-73
2023/04/15 11:33:30;;;;;;;3.83;0.93;;;11.30;99.90;;;;;;4999571;28;20289;-73
2023/04/15 11:35:56;;;;;;;2.83;0.70;;;11.40;99.90;;;;;;5016472;28;20354;-73
2023/04/15 11:38:21;;;;;;;6.43;1.10;;;11.50;99.90;;;;;;4994303;28;20041;-73
2023/04/15 11:40:49;;;;;;;3.00;1.07;;;11.60;99.90;;;;;;4996151;28;20124;-73
2023/04/15 11:43:19;;;;;;;6.97;1.77;;;11.50;99.90;;;;;;5024688;28;20585;-73
2023/04/15 11:46:00;;;;;;;2.30;1.30;;;11.40;99.90;;;;;;5025179;28;20292;-73
2023/04/15 11:48:28;;;;;;;9.20;1.73;;;11.20;99.90;;;;;;4997896;28;20662;-73
2023/04/15 11:50:56;;;;;;;5.57;1.20;;;11.10;99.90;;;;;;5019316;28;20520;-73
2023/04/15 11:53:23;;;;;;;6.63;1.33;;;11.10;99.90;;;;;;5024370;28;20103;-73
2023/04/15 11:55:51;;;;;;;7.90;1.38;;;11.10;99.90;;;;;;5005070;28;20769;-71
2023/04/15 11:58:23;;;;;;;3.60;1.23;;;11.00;99.90;;;;;;5019345;28;20029;-72
2023/04/15 12:00:54;;;;;;;6.13;1.60;;;10.90;99.90;;;;;;5024414;28;20330;-72
2023/04/15 12:03:23;;;;;;;3.88;1.35;;;10.80;99.90;;;;;;5000129;28;20041;-72
2023/04/15 12:06:11;;;;;;;2.40;1.03;;;10.80;99.90;;;;;;5009223;28;20048;-72
2023/04/15 12:08:59;;;;;;;7.32;1.50;;;10.70;99.90;;;;;;5001661;28;20331;-72
2023/04/15 12:11:47;;;;;;;4.13;1.00;;;10.70;99.90;;;;;;5029651;28;20038;-72
2023/04/15 12:14:31;;;;;;;3.58;0.90;;;10.70;99.90;;;;;;5029510;28;20440;-72
2023/04/15 12:17:00;;;;;;;5.03;1.27;;;10.70;99.90;;;;;;5020258;28;20559;-72
2023/04/15 12:19:33;;;;;;;3.80;1.00;;;10.80;99.90;;;;;;5030205;28;20084;-72
2023/04/15 12:22:13;;;;;;;10.30;1.10;;;11.00;99.90;;;;;;5029306;28;20123;-72
2023/04/15 12:24:39;;;;;;;5.57;0.93;;;11.00;99.90;;;;;;5023765;28;21415;-72
2023/04/15 12:27:07;;;;;;;7.18;0.93;;;10.90;99.90;;;;;;5033543;28;20050;-73
2023/04/15 12:29:34;;;;;;;4.95;1.13;;;10.80;99.90;;;;;;5027646;28;20112;-72
2023/04/15 12:32:06;;;;;;;6.13;1.00;;;10.80;99.90;;;;;;5048623;28;20077;-72
2023/04/15 12:34:37;;;;;;;7.15;1.42;;;10.70;99.90;;;;;;5030499;28;20131;-72
2023/04/15 12:37:05;;;;;;;8.35;1.20;;;10.60;99.90;;;;;;5024109;28;20034;-72
2023/04/15 12:39:35;;;;;;;5.45;0.95;;;10.50;99.90;;;;;;5023011;28;20578;-72
2023/04/15 12:42:02;;;;;;;7.45;1.10;;;10.40;99.90;;;;;;5026135;28;20037;-72